sensor_id;sensor_type;location;lat;lon;timestamp;P1;durP1;ratioP1;P2;durP2;ratioP2
2191;SDS011;1102;49.718;11.902;2022-07-23T00:00:59;13.60;;;12.20;;
2191;SDS011;1102;49.718;11.902;2022-07-23T00:03:26;11.47;;;10.50;;
2191;SDS011;1102;49.718;11.902;2022-07-23T00:05:53;11.00;;;10.10;;
2191;SDS011;1102;49.718;11.902;2022-07-23T00:08:20;10.67;;;9.80;;
2191;SDS011;1102;49.718;11.902;2022-07-23T00:10:47;11.70;;;10.60;;
2191;SDS011;1102;49.718;11.902;2022-07-23T00:13:13;13.37;;;12.17;;
2191;SDS011;1102;49.718;11.902;2022-07-23T00:15:40;11.93;;;10.70;;
2191;SDS011;1102;49.718;11.902;2022-07-23T00:18:07;12.43;;;11.13;;
2191;SDS011;1102;49.718;11.902;2022-07-23T00:20:33;11.70;;;10.47;;
2191;SDS011;1102;49.718;11.902;2022-07-23T00:23:00;11.47;;;10.57;;
2191;SDS011;1102;49.718;11.902;2022-07-23T00:25:27;13.23;;;10.93;;
2191;SDS011;1102;49.718;11.902;2022-07-23T00:27:57;15.73;;;11.80;;
2191;SDS011;1102;49.718;11.902;2022-07-23T00:30:24;26.80;;;13.85;;
2191;SDS011;1102;49.718;11.902;2022-07-23T00:32:53;22.23;;;13.23;;
2191;SDS011;1102;49.718;11.902;2022-07-23T00:35:24;21.13;;;14.40;;
2191;SDS011;1102;49.718;11.902;2022-07-23T00:37:52;21.37;;;12.80;;
2191;SDS011;1102;49.718;11.902;2022-07-23T00:40:20;20.40;;;14.03;;
2191;SDS011;1102;49.718;11.902;2022-07-23T00:42:47;22.57;;;11.93;;
2191;SDS011;1102;49.718;11.902;2022-07-23T00:45:13;17.70;;;14.30;;
2191;SDS011;1102;49.718;11.902;2022-07-23T03:41:31;16.13;;;14.20;;
2191;SDS011;1102;49.718;11.902;2022-07-23T03:43:58;15.30;;;13.90;;
2191;SDS011;1102;49.718;11.902;2022-07-23T03:46:25;19.60;;;14.23;;
2191;SDS011;1102;49.718;11.902;2022-07-23T03:48:53;16.43;;;14.90;;
2191;SDS011;1102;49.718;11.902;2022-07-23T03:51:24;16.10;;;13.77;;
2191;SDS011;1102;49.718;11.902;2022-07-23T03:53:51;20.10;;;15.10;;
2191;SDS011;1102;49.718;11.902;2022-07-23T03:56:18;16.43;;;14.80;;
2191;SDS011;1102;49.718;11.902;2022-07-23T03:58:44;17.93;;;16.23;;
2191;SDS011;1102;49.718;11.902;2022-07-23T04:01:11;15.17;;;13.57;;
2191;SDS011;1102;49.718;11.902;2022-07-23T04:03:38;15.70;;;14.30;;
2191;SDS011;1102;49.718;11.902;2022-07-23T04:06:06;16.37;;;14.87;;
2191;SDS011;1102;49.718;11.902;2022-07-23T04:08:34;17.50;;;16.00;;
2191;SDS011;1102;49.718;11.902;2022-07-23T04:11:02;17.87;;;15.97;;
2191;SDS011;1102;49.718;11.902;2022-07-23T04:13:29;16.60;;;15.00;;
2191;SDS011;1102;49.718;11.902;2022-07-23T04:15:56;18.53;;;16.50;;
2191;SDS011;1102;49.718;11.902;2022-07-23T04:18:23;19.30;;;17.30;;
2191;SDS011;1102;49.718;11.902;2022-07-23T04:21:01;16.97;;;15.67;;
2191;SDS011;1102;49.718;11.902;2022-07-23T04:23:28;20.43;;;15.50;;
2191;SDS011;1102;49.718;11.902;2022-07-23T04:25:54;17.43;;;15.73;;
2191;SDS011;1102;49.718;11.902;2022-07-23T04:28:22;18.27;;;16.10;;
2191;SDS011;1102;49.718;11.902;2022-07-23T04:30:49;18.63;;;16.63;;
2191;SDS011;1102;49.718;11.902;2022-07-23T04:33:16;16.87;;;15.27;;
2191;SDS011;1102;49.718;11.902;2022-07-23T04:35:46;16.80;;;15.10;;
2191;SDS011;1102;49.718;11.902;2022-07-23T04:38:17;17.03;;;15.40;;
2191;SDS011;1102;49.718;11.902;2022-07-23T04:40:45;16.60;;;15.00;;
2191;SDS011;1102;49.718;11.902;2022-07-23T04:43:12;17.47;;;15.80;;
2191;SDS011;1102;49.718;11.902;2022-07-23T04:45:44;16.97;;;15.37;;
2191;SDS011;1102;49.718;11.902;2022-07-23T04:48:11;15.50;;;14.07;;
2191;SDS011;1102;49.718;11.902;2022-07-23T04:50:38;16.73;;;15.03;;
2191;SDS011;1102;49.718;11.902;2022-07-23T04:53:13;19.50;;;15.40;;
2191;SDS011;1102;49.718;11.902;2022-07-23T04:55:41;17.20;;;15.43;;
2191;SDS011;1102;49.718;11.902;2022-07-23T04:58:08;17.80;;;16.20;;
2191;SDS011;1102;49.718;11.902;2022-07-23T05:00:35;17.63;;;15.90;;
2191;SDS011;1102;49.718;11.902;2022-07-23T05:03:02;18.40;;;16.43;;
2191;SDS011;1102;49.718;11.902;2022-07-23T05:05:28;18.60;;;16.67;;
2191;SDS011;1102;49.718;11.902;2022-07-23T05:08:02;18.77;;;16.87;;
2191;SDS011;1102;49.718;11.902;2022-07-23T05:10:29;17.20;;;15.60;;
2191;SDS011;1102;49.718;11.902;2022-07-23T05:12:55;17.70;;;15.97;;
2191;SDS011;1102;49.718;11.902;2022-07-23T05:15:22;19.37;;;17.43;;
2191;SDS011;1102;49.718;11.902;2022-07-23T05:17:49;18.17;;;16.27;;
2191;SDS011;1102;49.718;11.902;2022-07-23T05:20:17;17.10;;;15.50;;
2191;SDS011;1102;49.718;11.902;2022-07-23T05:22:43;18.43;;;16.53;;
2191;SDS011;1102;49.718;11.902;2022-07-23T05:25:11;19.30;;;17.60;;
2191;SDS011;1102;49.718;11.902;2022-07-23T05:27:38;18.40;;;16.80;;
2191;SDS011;1102;49.718;11.902;2022-07-23T05:30:05;22.60;;;17.67;;
2191;SDS011;1102;49.718;11.902;2022-07-23T05:32:34;19.20;;;17.13;;
2191;SDS011;1102;49.718;11.902;2022-07-23T05:35:11;19.03;;;16.20;;
2191;SDS011;1102;49.718;11.902;2022-07-23T05:37:45;18.27;;;16.67;;
2191;SDS011;1102;49.718;11.902;2022-07-23T05:40:12;18.90;;;17.10;;
2191;SDS011;1102;49.718;11.902;2022-07-23T05:42:39;18.17;;;16.50;;
2191;SDS011;1102;49.718;11.902;2022-07-23T05:45:07;19.23;;;17.33;;
2191;SDS011;1102;49.718;11.902;2022-07-23T05:47:39;18.60;;;16.80;;
2191;SDS011;1102;49.718;11.902;2022-07-23T05:50:11;19.60;;;17.80;;
2191;SDS011;1102;49.718;11.902;2022-07-23T05:52:45;20.27;;;18.37;;
2191;SDS011;1102;49.718;11.902;2022-07-23T05:55:33;18.07;;;16.40;;
2191;SDS011;1102;49.718;11.902;2022-07-23T05:58:00;18.00;;;16.50;;
2191;SDS011;1102;49.718;11.902;2022-07-23T06:00:27;17.60;;;15.77;;
2191;SDS011;1102;49.718;11.902;2022-07-23T06:02:54;18.80;;;16.87;;
2191;SDS011;1102;49.718;11.902;2022-07-23T06:05:23;18.00;;;16.40;;
2191;SDS011;1102;49.718;11.902;2022-07-23T06:07:52;17.20;;;15.60;;
2191;SDS011;1102;49.718;11.902;2022-07-23T06:10:20;17.43;;;15.90;;
2191;SDS011;1102;49.718;11.902;2022-07-23T06:12:47;19.60;;;17.90;;
2191;SDS011;1102;49.718;11.902;2022-07-23T06:15:14;19.83;;;16.00;;
2191;SDS011;1102;49.718;11.902;2022-07-23T06:17:41;17.83;;;16.33;;
2191;SDS011;1102;49.718;11.902;2022-07-23T06:20:08;17.60;;;16.10;;
2191;SDS011;1102;49.718;11.902;2022-07-23T06:22:37;16.33;;;14.83;;
2191;SDS011;1102;49.718;11.902;2022-07-23T06:25:04;17.23;;;15.73;;
2191;SDS011;1102;49.718;11.902;2022-07-23T06:27:39;17.37;;;15.83;;
2191;SDS011;1102;49.718;11.902;2022-07-23T06:30:06;16.60;;;15.20;;
2191;SDS011;1102;49.718;11.902;2022-07-23T06:32:36;16.60;;;15.20;;
2191;SDS011;1102;49.718;11.902;2022-07-23T06:35:03;16.23;;;14.73;;
2191;SDS011;1102;49.718;11.902;2022-07-23T06:37:30;16.33;;;14.80;;
2191;SDS011;1102;49.718;11.902;2022-07-23T06:40:00;18.40;;;14.60;;
2191;SDS011;1102;49.718;11.902;2022-07-23T06:42:27;15.57;;;14.27;;
2191;SDS011;1102;49.718;11.902;2022-07-23T06:44:57;16.17;;;14.47;;
2191;SDS011;1102;49.718;11.902;2022-07-23T06:47:24;14.13;;;12.73;;
2191;SDS011;1102;49.718;11.902;2022-07-23T06:49:51;12.30;;;11.30;;
2191;SDS011;1102;49.718;11.902;2022-07-23T06:52:18;15.53;;;14.17;;
2191;SDS011;1102;49.718;11.902;2022-07-23T06:54:45;10.67;;;9.77;;
2191;SDS011;1102;49.718;11.902;2022-07-23T06:57:11;10.83;;;9.73;;
2191;SDS011;1102;49.718;11.902;2022-07-23T06:59:38;10.83;;;9.80;;
2191;SDS011;1102;49.718;11.902;2022-07-23T07:02:08;11.90;;;10.10;;
2191;SDS011;1102;49.718;11.902;2022-07-23T07:04:35;12.67;;;7.90;;
2191;SDS011;1102;49.718;11.902;2022-07-23T07:07:02;8.60;;;7.70;;
2191;SDS011;1102;49.718;11.902;2022-07-23T07:09:28;8.70;;;7.83;;
2191;SDS011;1102;49.718;11.902;2022-07-23T07:11:55;9.93;;;8.90;;
2191;SDS011;1102;49.718;11.902;2022-07-23T07:14:22;9.57;;;8.60;;
2191;SDS011;1102;49.718;11.902;2022-07-23T07:16:49;8.57;;;7.87;;
2191;SDS011;1102;49.718;11.902;2022-07-23T07:19:16;9.10;;;8.30;;
2191;SDS011;1102;49.718;11.902;2022-07-23T07:21:42;8.33;;;7.37;;
2191;SDS011;1102;49.718;11.902;2022-07-23T07:24:09;9.20;;;8.30;;
2191;SDS011;1102;49.718;11.902;2022-07-23T07:26:36;9.33;;;8.43;;
2191;SDS011;1102;49.718;11.902;2022-07-23T07:29:05;7.63;;;6.93;;
2191;SDS011;1102;49.718;11.902;2022-07-23T07:31:32;9.30;;;8.50;;
2191;SDS011;1102;49.718;11.902;2022-07-23T07:33:59;11.03;;;10.03;;
2191;SDS011;1102;49.718;11.902;2022-07-23T07:36:26;11.87;;;10.87;;
2191;SDS011;1102;49.718;11.902;2022-07-23T07:38:52;9.40;;;8.40;;
2191;SDS011;1102;49.718;11.902;2022-07-23T07:41:19;8.73;;;7.93;;
2191;SDS011;1102;49.718;11.902;2022-07-23T07:43:50;8.43;;;7.73;;
2191;SDS011;1102;49.718;11.902;2022-07-23T07:46:17;8.80;;;8.10;;
2191;SDS011;1102;49.718;11.902;2022-07-23T07:48:44;10.10;;;8.43;;
2191;SDS011;1102;49.718;11.902;2022-07-23T07:51:11;10.60;;;9.50;;
2191;SDS011;1102;49.718;11.902;2022-07-23T07:53:37;9.53;;;8.60;;
2191;SDS011;1102;49.718;11.902;2022-07-23T07:56:05;11.60;;;10.60;;
2191;SDS011;1102;49.718;11.902;2022-07-23T07:58:33;9.13;;;8.43;;
2191;SDS011;1102;49.718;11.902;2022-07-23T08:01:00;10.13;;;9.30;;
2191;SDS011;1102;49.718;11.902;2022-07-23T08:03:28;8.57;;;7.87;;
2191;SDS011;1102;49.718;11.902;2022-07-23T08:05:56;10.03;;;9.07;;
2191;SDS011;1102;49.718;11.902;2022-07-23T08:08:23;8.40;;;7.77;;
2191;SDS011;1102;49.718;11.902;2022-07-23T08:10:50;9.60;;;8.90;;
2191;SDS011;1102;49.718;11.902;2022-07-23T08:13:16;8.53;;;7.83;;
2191;SDS011;1102;49.718;11.902;2022-07-23T08:15:43;8.57;;;7.87;;
2191;SDS011;1102;49.718;11.902;2022-07-23T08:18:12;9.40;;;8.60;;
2191;SDS011;1102;49.718;11.902;2022-07-23T08:20:39;9.83;;;8.90;;
2191;SDS011;1102;49.718;11.902;2022-07-23T08:23:06;10.97;;;8.50;;
2191;SDS011;1102;49.718;11.902;2022-07-23T08:25:38;9.50;;;8.70;;
2191;SDS011;1102;49.718;11.902;2022-07-23T08:28:08;9.33;;;8.63;;
2191;SDS011;1102;49.718;11.902;2022-07-23T08:30:36;9.03;;;8.40;;
2191;SDS011;1102;49.718;11.902;2022-07-23T08:35:35;10.70;;;9.20;;
2191;SDS011;1102;49.718;11.902;2022-07-23T08:38:04;9.43;;;8.43;;
2191;SDS011;1102;49.718;11.902;2022-07-23T08:40:33;9.80;;;8.63;;
2191;SDS011;1102;49.718;11.902;2022-07-23T08:43:09;9.60;;;8.80;;
2191;SDS011;1102;49.718;11.902;2022-07-23T08:45:40;8.53;;;7.60;;
2191;SDS011;1102;49.718;11.902;2022-07-23T08:48:13;9.20;;;8.43;;
2191;SDS011;1102;49.718;11.902;2022-07-23T08:50:43;8.30;;;7.50;;
2191;SDS011;1102;49.718;11.902;2022-07-23T08:53:12;8.17;;;7.47;;
2191;SDS011;1102;49.718;11.902;2022-07-23T08:55:40;9.17;;;8.30;;
2191;SDS011;1102;49.718;11.902;2022-07-23T08:58:09;9.10;;;8.30;;
2191;SDS011;1102;49.718;11.902;2022-07-23T09:00:36;8.40;;;7.70;;
2191;SDS011;1102;49.718;11.902;2022-07-23T09:03:03;8.63;;;7.90;;
2191;SDS011;1102;49.718;11.902;2022-07-23T09:05:29;8.63;;;7.87;;
2191;SDS011;1102;49.718;11.902;2022-07-23T09:10:30;8.63;;;8.03;;
2191;SDS011;1102;49.718;11.902;2022-07-23T09:16:01;8.60;;;7.70;;
2191;SDS011;1102;49.718;11.902;2022-07-23T09:18:34;8.00;;;7.23;;
2191;SDS011;1102;49.718;11.902;2022-07-23T09:21:11;8.40;;;7.70;;
2191;SDS011;1102;49.718;11.902;2022-07-23T09:29:00;9.00;;;8.20;;
2191;SDS011;1102;49.718;11.902;2022-07-23T09:34:17;8.33;;;7.63;;
2191;SDS011;1102;49.718;11.902;2022-07-23T09:36:46;8.67;;;7.83;;
2191;SDS011;1102;49.718;11.902;2022-07-23T09:39:14;9.80;;;9.00;;
2191;SDS011;1102;49.718;11.902;2022-07-23T09:41:43;9.00;;;8.20;;
2191;SDS011;1102;49.718;11.902;2022-07-23T09:44:12;9.97;;;9.13;;
2191;SDS011;1102;49.718;11.902;2022-07-23T09:46:49;9.10;;;8.20;;
2191;SDS011;1102;49.718;11.902;2022-07-23T09:49:20;8.03;;;7.30;;
2191;SDS011;1102;49.718;11.902;2022-07-23T09:51:49;9.40;;;8.60;;
2191;SDS011;1102;49.718;11.902;2022-07-23T09:54:26;9.40;;;8.60;;
2191;SDS011;1102;49.718;11.902;2022-07-23T09:57:00;9.37;;;8.47;;
2191;SDS011;1102;49.718;11.902;2022-07-23T09:59:31;9.87;;;8.97;;
2191;SDS011;1102;49.718;11.902;2022-07-23T10:02:00;8.90;;;8.10;;
2191;SDS011;1102;49.718;11.902;2022-07-23T10:04:33;12.43;;;8.77;;
2191;SDS011;1102;49.718;11.902;2022-07-23T10:07:17;8.63;;;7.93;;
2191;SDS011;1102;49.718;11.902;2022-07-23T10:10:06;9.40;;;7.90;;
2191;SDS011;1102;49.718;11.902;2022-07-23T10:12:52;7.83;;;7.13;;
2191;SDS011;1102;49.718;11.902;2022-07-23T10:15:29;7.90;;;7.20;;
2191;SDS011;1102;49.718;11.902;2022-07-23T10:17:56;8.83;;;7.93;;
2191;SDS011;1102;49.718;11.902;2022-07-23T10:20:23;8.40;;;7.63;;
2191;SDS011;1102;49.718;11.902;2022-07-23T10:23:00;8.60;;;7.90;;
2191;SDS011;1102;49.718;11.902;2022-07-23T10:26:00;10.23;;;8.73;;
2191;SDS011;1102;49.718;11.902;2022-07-23T10:29:13;8.50;;;7.80;;
2191;SDS011;1102;49.718;11.902;2022-07-23T10:31:38;8.23;;;7.63;;
2191;SDS011;1102;49.718;11.902;2022-07-23T10:34:44;9.47;;;8.67;;
2191;SDS011;1102;49.718;11.902;2022-07-23T10:40:11;8.50;;;7.80;;
2191;SDS011;1102;49.718;11.902;2022-07-23T10:42:47;9.50;;;8.80;;
2191;SDS011;1102;49.718;11.902;2022-07-23T10:45:24;10.00;;;9.17;;
2191;SDS011;1102;49.718;11.902;2022-07-23T10:47:56;8.93;;;8.03;;
2191;SDS011;1102;49.718;11.902;2022-07-23T10:54:16;9.60;;;8.70;;
2191;SDS011;1102;49.718;11.902;2022-07-23T10:59:22;8.07;;;7.27;;
2191;SDS011;1102;49.718;11.902;2022-07-23T11:01:49;9.23;;;8.43;;
2191;SDS011;1102;49.718;11.902;2022-07-23T11:04:17;8.47;;;7.57;;
2191;SDS011;1102;49.718;11.902;2022-07-23T11:09:27;8.20;;;7.60;;
2191;SDS011;1102;49.718;11.902;2022-07-23T11:17:26;8.70;;;7.93;;
2191;SDS011;1102;49.718;11.902;2022-07-23T11:25:05;8.77;;;7.97;;
2191;SDS011;1102;49.718;11.902;2022-07-23T11:27:36;9.63;;;8.83;;
2191;SDS011;1102;49.718;11.902;2022-07-23T11:30:08;10.17;;;9.27;;
2191;SDS011;1102;49.718;11.902;2022-07-23T11:32:39;8.97;;;8.20;;
2191;SDS011;1102;49.718;11.902;2022-07-23T11:35:20;9.57;;;8.77;;
2191;SDS011;1102;49.718;11.902;2022-07-23T11:37:47;8.67;;;7.87;;
2191;SDS011;1102;49.718;11.902;2022-07-23T11:40:15;9.47;;;8.67;;
2191;SDS011;1102;49.718;11.902;2022-07-23T11:45:24;10.53;;;9.60;;
2191;SDS011;1102;49.718;11.902;2022-07-23T11:47:55;10.23;;;9.33;;
2191;SDS011;1102;49.718;11.902;2022-07-23T11:50:23;11.80;;;8.70;;
2191;SDS011;1102;49.718;11.902;2022-07-23T11:52:51;10.37;;;9.60;;
2191;SDS011;1102;49.718;11.902;2022-07-23T11:55:18;9.93;;;9.13;;
2191;SDS011;1102;49.718;11.902;2022-07-23T11:57:46;9.30;;;8.40;;
2191;SDS011;1102;49.718;11.902;2022-07-23T12:00:15;10.57;;;9.47;;
2191;SDS011;1102;49.718;11.902;2022-07-23T12:02:47;11.27;;;9.30;;
2191;SDS011;1102;49.718;11.902;2022-07-23T12:05:17;8.67;;;7.97;;
2191;SDS011;1102;49.718;11.902;2022-07-23T12:07:46;10.47;;;9.57;;
2191;SDS011;1102;49.718;11.902;2022-07-23T12:10:36;9.50;;;8.80;;
2191;SDS011;1102;49.718;11.902;2022-07-23T12:13:09;9.53;;;8.63;;
2191;SDS011;1102;49.718;11.902;2022-07-23T12:15:44;9.30;;;8.60;;
2191;SDS011;1102;49.718;11.902;2022-07-23T12:18:19;9.70;;;8.90;;
2191;SDS011;1102;49.718;11.902;2022-07-23T12:20:49;8.37;;;7.57;;
2191;SDS011;1102;49.718;11.902;2022-07-23T12:23:18;9.13;;;8.33;;
2191;SDS011;1102;49.718;11.902;2022-07-23T12:25:47;8.90;;;8.30;;
2191;SDS011;1102;49.718;11.902;2022-07-23T12:30:50;9.27;;;8.57;;
2191;SDS011;1102;49.718;11.902;2022-07-23T12:35:49;9.40;;;8.60;;
2191;SDS011;1102;49.718;11.902;2022-07-23T12:38:18;10.10;;;9.20;;
2191;SDS011;1102;49.718;11.902;2022-07-23T12:40:47;8.07;;;7.40;;
2191;SDS011;1102;49.718;11.902;2022-07-23T12:43:20;9.70;;;8.90;;
2191;SDS011;1102;49.718;11.902;2022-07-23T12:48:20;9.70;;;8.93;;
2191;SDS011;1102;49.718;11.902;2022-07-23T12:53:37;9.13;;;8.30;;
2191;SDS011;1102;49.718;11.902;2022-07-23T12:56:16;10.20;;;9.30;;
2191;SDS011;1102;49.718;11.902;2022-07-23T13:01:31;11.10;;;9.10;;
2191;SDS011;1102;49.718;11.902;2022-07-23T13:04:09;7.80;;;7.17;;
2191;SDS011;1102;49.718;11.902;2022-07-23T13:06:49;8.77;;;8.13;;
2191;SDS011;1102;49.718;11.902;2022-07-23T13:09:31;9.13;;;8.43;;
2191;SDS011;1102;49.718;11.902;2022-07-23T13:12:07;9.67;;;8.70;;
2191;SDS011;1102;49.718;11.902;2022-07-23T13:14:37;8.90;;;8.10;;
2191;SDS011;1102;49.718;11.902;2022-07-23T13:17:04;9.20;;;7.90;;
2191;SDS011;1102;49.718;11.902;2022-07-23T13:19:32;9.33;;;8.43;;
2191;SDS011;1102;49.718;11.902;2022-07-23T13:22:00;8.73;;;8.03;;
2191;SDS011;1102;49.718;11.902;2022-07-23T13:24:34;10.00;;;9.07;;
2191;SDS011;1102;49.718;11.902;2022-07-23T13:27:04;11.00;;;10.00;;
2191;SDS011;1102;49.718;11.902;2022-07-23T13:29:33;8.77;;;8.07;;
2191;SDS011;1102;49.718;11.902;2022-07-23T13:32:02;8.73;;;8.07;;
2191;SDS011;1102;49.718;11.902;2022-07-23T13:34:39;9.80;;;8.97;;
2191;SDS011;1102;49.718;11.902;2022-07-23T13:37:06;8.70;;;7.90;;
2191;SDS011;1102;49.718;11.902;2022-07-23T13:39:36;9.13;;;8.43;;
2191;SDS011;1102;49.718;11.902;2022-07-23T13:42:04;9.90;;;9.00;;
2191;SDS011;1102;49.718;11.902;2022-07-23T13:44:33;10.20;;;9.30;;
2191;SDS011;1102;49.718;11.902;2022-07-23T13:47:01;10.60;;;9.80;;
2191;SDS011;1102;49.718;11.902;2022-07-23T13:49:30;11.17;;;10.33;;
2191;SDS011;1102;49.718;11.902;2022-07-23T13:51:56;9.83;;;8.93;;
2191;SDS011;1102;49.718;11.902;2022-07-23T13:54:26;11.07;;;10.20;;
2191;SDS011;1102;49.718;11.902;2022-07-23T13:56:54;9.43;;;8.70;;
2191;SDS011;1102;49.718;11.902;2022-07-23T13:59:21;11.93;;;10.70;;
2191;SDS011;1102;49.718;11.902;2022-07-23T14:01:52;9.87;;;9.00;;
2191;SDS011;1102;49.718;11.902;2022-07-23T14:04:39;10.80;;;9.27;;
2191;SDS011;1102;49.718;11.902;2022-07-23T14:07:07;9.47;;;8.67;;
2191;SDS011;1102;49.718;11.902;2022-07-23T14:09:34;11.17;;;10.30;;
2191;SDS011;1102;49.718;11.902;2022-07-23T14:12:02;9.40;;;8.70;;
2191;SDS011;1102;49.718;11.902;2022-07-23T14:14:29;10.30;;;9.43;;
2191;SDS011;1102;49.718;11.902;2022-07-23T14:16:56;9.50;;;8.60;;
2191;SDS011;1102;49.718;11.902;2022-07-23T14:19:23;8.97;;;8.20;;
2191;SDS011;1102;49.718;11.902;2022-07-23T14:21:50;10.27;;;9.53;;
2191;SDS011;1102;49.718;11.902;2022-07-23T14:24:17;9.80;;;9.00;;
2191;SDS011;1102;49.718;11.902;2022-07-23T14:26:44;10.00;;;9.27;;
2191;SDS011;1102;49.718;11.902;2022-07-23T14:29:11;10.43;;;9.60;;
2191;SDS011;1102;49.718;11.902;2022-07-23T14:31:38;10.40;;;9.60;;
2191;SDS011;1102;49.718;11.902;2022-07-23T14:34:04;11.37;;;10.47;;
2191;SDS011;1102;49.718;11.902;2022-07-23T14:36:33;11.37;;;10.57;;
2191;SDS011;1102;49.718;11.902;2022-07-23T14:39:00;10.80;;;9.90;;
2191;SDS011;1102;49.718;11.902;2022-07-23T14:41:28;11.10;;;10.10;;
2191;SDS011;1102;49.718;11.902;2022-07-23T14:43:55;11.80;;;10.90;;
2191;SDS011;1102;49.718;11.902;2022-07-23T14:46:22;10.77;;;9.97;;
2191;SDS011;1102;49.718;11.902;2022-07-23T14:48:49;10.60;;;9.73;;
2191;SDS011;1102;49.718;11.902;2022-07-23T14:51:16;10.20;;;9.47;;
2191;SDS011;1102;49.718;11.902;2022-07-23T14:53:44;11.00;;;10.07;;
2191;SDS011;1102;49.718;11.902;2022-07-23T14:56:11;10.47;;;9.47;;
2191;SDS011;1102;49.718;11.902;2022-07-23T14:58:40;11.33;;;10.23;;
2191;SDS011;1102;49.718;11.902;2022-07-23T15:01:08;11.17;;;10.10;;
2191;SDS011;1102;49.718;11.902;2022-07-23T15:03:35;14.40;;;10.47;;
2191;SDS011;1102;49.718;11.902;2022-07-23T15:06:08;10.27;;;9.47;;
2191;SDS011;1102;49.718;11.902;2022-07-23T15:08:35;10.33;;;9.53;;
2191;SDS011;1102;49.718;11.902;2022-07-23T15:11:01;11.57;;;10.57;;
2191;SDS011;1102;49.718;11.902;2022-07-23T15:13:28;11.00;;;10.20;;
2191;SDS011;1102;49.718;11.902;2022-07-23T15:15:57;10.83;;;9.90;;
2191;SDS011;1102;49.718;11.902;2022-07-23T15:18:24;10.10;;;9.30;;
2191;SDS011;1102;49.718;11.902;2022-07-23T15:20:51;10.37;;;9.57;;
2191;SDS011;1102;49.718;11.902;2022-07-23T15:23:18;10.80;;;9.90;;
2191;SDS011;1102;49.718;11.902;2022-07-23T15:25:45;10.43;;;9.53;;
2191;SDS011;1102;49.718;11.902;2022-07-23T15:28:32;9.43;;;8.63;;
2191;SDS011;1102;49.718;11.902;2022-07-23T15:30:59;10.50;;;9.50;;
2191;SDS011;1102;49.718;11.902;2022-07-23T15:33:27;10.30;;;9.20;;
2191;SDS011;1102;49.718;11.902;2022-07-23T15:35:53;10.33;;;9.53;;
2191;SDS011;1102;49.718;11.902;2022-07-23T15:38:23;9.73;;;8.93;;
2191;SDS011;1102;49.718;11.902;2022-07-23T15:40:52;10.07;;;8.90;;
2191;SDS011;1102;49.718;11.902;2022-07-23T15:43:21;9.53;;;8.73;;
2191;SDS011;1102;49.718;11.902;2022-07-23T15:45:49;11.40;;;9.17;;
2191;SDS011;1102;49.718;11.902;2022-07-23T15:48:17;8.70;;;8.10;;
2191;SDS011;1102;49.718;11.902;2022-07-23T15:50:45;10.53;;;9.73;;
2191;SDS011;1102;49.718;11.902;2022-07-23T15:53:13;10.10;;;9.10;;
2191;SDS011;1102;49.718;11.902;2022-07-23T15:55:41;9.60;;;8.70;;
2191;SDS011;1102;49.718;11.902;2022-07-23T15:58:12;8.57;;;7.90;;
2191;SDS011;1102;49.718;11.902;2022-07-23T16:00:39;10.07;;;7.23;;
2191;SDS011;1102;49.718;11.902;2022-07-23T16:03:08;9.00;;;8.20;;
2191;SDS011;1102;49.718;11.902;2022-07-23T16:05:35;8.77;;;8.00;;
2191;SDS011;1102;49.718;11.902;2022-07-23T16:08:03;8.00;;;7.40;;
2191;SDS011;1102;49.718;11.902;2022-07-23T16:10:31;10.20;;;8.57;;
2191;SDS011;1102;49.718;11.902;2022-07-23T16:12:58;9.50;;;8.50;;
2191;SDS011;1102;49.718;11.902;2022-07-23T16:15:25;9.40;;;8.47;;
2191;SDS011;1102;49.718;11.902;2022-07-23T16:17:53;7.47;;;6.83;;
2191;SDS011;1102;49.718;11.902;2022-07-23T16:20:21;13.03;;;7.50;;
2191;SDS011;1102;49.718;11.902;2022-07-23T16:22:48;9.50;;;8.43;;
2191;SDS011;1102;49.718;11.902;2022-07-23T16:25:15;9.27;;;7.97;;
2191;SDS011;1102;49.718;11.902;2022-07-23T16:27:42;7.83;;;7.33;;
2191;SDS011;1102;49.718;11.902;2022-07-23T16:30:09;8.53;;;7.33;;
2191;SDS011;1102;49.718;11.902;2022-07-23T16:32:37;9.07;;;8.17;;
2191;SDS011;1102;49.718;11.902;2022-07-23T16:35:05;8.93;;;8.23;;
2191;SDS011;1102;49.718;11.902;2022-07-23T16:37:40;8.70;;;7.97;;
2191;SDS011;1102;49.718;11.902;2022-07-23T16:40:07;8.97;;;8.17;;
2191;SDS011;1102;49.718;11.902;2022-07-23T16:42:35;10.57;;;8.00;;
2191;SDS011;1102;49.718;11.902;2022-07-23T16:45:03;8.57;;;7.60;;
2191;SDS011;1102;49.718;11.902;2022-07-23T16:47:33;9.43;;;7.90;;
2191;SDS011;1102;49.718;11.902;2022-07-23T16:50:00;7.53;;;6.93;;
2191;SDS011;1102;49.718;11.902;2022-07-23T16:52:27;8.90;;;7.50;;
2191;SDS011;1102;49.718;11.902;2022-07-23T16:54:54;8.47;;;7.87;;
2191;SDS011;1102;49.718;11.902;2022-07-23T16:57:21;8.33;;;7.70;;
2191;SDS011;1102;49.718;11.902;2022-07-23T16:59:48;9.13;;;8.33;;
2191;SDS011;1102;49.718;11.902;2022-07-23T17:02:15;8.47;;;7.90;;
2191;SDS011;1102;49.718;11.902;2022-07-23T17:04:42;10.00;;;7.53;;
2191;SDS011;1102;49.718;11.902;2022-07-23T17:07:09;8.33;;;7.77;;
2191;SDS011;1102;49.718;11.902;2022-07-23T17:09:35;7.47;;;6.77;;
2191;SDS011;1102;49.718;11.902;2022-07-23T17:12:02;8.60;;;7.77;;
2191;SDS011;1102;49.718;11.902;2022-07-23T17:14:29;8.30;;;7.70;;
2191;SDS011;1102;49.718;11.902;2022-07-23T17:16:56;8.73;;;8.00;;
2191;SDS011;1102;49.718;11.902;2022-07-23T17:19:24;8.17;;;6.80;;
2191;SDS011;1102;49.718;11.902;2022-07-23T17:21:50;8.70;;;8.10;;
2191;SDS011;1102;49.718;11.902;2022-07-23T17:24:17;8.30;;;7.70;;
2191;SDS011;1102;49.718;11.902;2022-07-23T17:26:46;10.80;;;7.97;;
2191;SDS011;1102;49.718;11.902;2022-07-23T17:29:15;8.80;;;8.10;;
2191;SDS011;1102;49.718;11.902;2022-07-23T17:31:42;8.80;;;7.90;;
2191;SDS011;1102;49.718;11.902;2022-07-23T17:34:09;8.13;;;7.43;;
2191;SDS011;1102;49.718;11.902;2022-07-23T17:36:36;7.80;;;7.30;;
2191;SDS011;1102;49.718;11.902;2022-07-23T17:39:03;8.10;;;7.40;;
2191;SDS011;1102;49.718;11.902;2022-07-23T17:41:32;9.07;;;8.27;;
2191;SDS011;1102;49.718;11.902;2022-07-23T17:43:59;9.80;;;7.87;;
2191;SDS011;1102;49.718;11.902;2022-07-23T17:46:27;8.30;;;7.50;;
2191;SDS011;1102;49.718;11.902;2022-07-23T17:48:54;8.63;;;7.93;;
2191;SDS011;1102;49.718;11.902;2022-07-23T17:51:21;8.33;;;7.77;;
2191;SDS011;1102;49.718;11.902;2022-07-23T17:53:48;8.57;;;7.87;;
2191;SDS011;1102;49.718;11.902;2022-07-23T17:56:14;9.07;;;8.27;;
2191;SDS011;1102;49.718;11.902;2022-07-23T17:58:41;8.40;;;7.47;;
2191;SDS011;1102;49.718;11.902;2022-07-23T18:01:08;7.67;;;7.17;;
2191;SDS011;1102;49.718;11.902;2022-07-23T18:03:35;8.60;;;7.87;;
2191;SDS011;1102;49.718;11.902;2022-07-23T18:06:04;8.43;;;7.73;;
2191;SDS011;1102;49.718;11.902;2022-07-23T18:08:30;7.33;;;6.83;;
2191;SDS011;1102;49.718;11.902;2022-07-23T18:10:57;8.03;;;7.43;;
2191;SDS011;1102;49.718;11.902;2022-07-23T18:13:24;9.20;;;8.50;;
2191;SDS011;1102;49.718;11.902;2022-07-23T18:15:51;7.30;;;6.60;;
2191;SDS011;1102;49.718;11.902;2022-07-23T18:18:18;9.00;;;8.20;;
2191;SDS011;1102;49.718;11.902;2022-07-23T18:20:45;8.27;;;7.60;;
2191;SDS011;1102;49.718;11.902;2022-07-23T18:23:13;8.00;;;7.40;;
2191;SDS011;1102;49.718;11.902;2022-07-23T18:25:40;8.23;;;7.63;;
2191;SDS011;1102;49.718;11.902;2022-07-23T18:28:07;8.83;;;7.40;;
2191;SDS011;1102;49.718;11.902;2022-07-23T18:30:34;7.60;;;6.97;;
2191;SDS011;1102;49.718;11.902;2022-07-23T18:33:00;8.03;;;7.43;;
2191;SDS011;1102;49.718;11.902;2022-07-23T18:35:33;8.50;;;7.70;;
2191;SDS011;1102;49.718;11.902;2022-07-23T18:38:00;7.40;;;6.90;;
2191;SDS011;1102;49.718;11.902;2022-07-23T18:40:27;7.37;;;6.87;;
2191;SDS011;1102;49.718;11.902;2022-07-23T18:42:54;9.10;;;8.10;;
2191;SDS011;1102;49.718;11.902;2022-07-23T18:45:23;8.83;;;8.23;;
2191;SDS011;1102;49.718;11.902;2022-07-23T18:47:51;10.93;;;10.03;;
2191;SDS011;1102;49.718;11.902;2022-07-23T18:50:19;9.70;;;8.93;;